createdAt,value
2022-11-18T00:00:26.951Z,40.53
2022-11-18T00:02:57.654Z,39.47
2022-11-18T00:05:28.647Z,36.38
2022-11-18T00:07:59.074Z,29.92
2022-11-18T00:10:29.801Z,29.67
2022-11-18T00:13:19.815Z,27.15
2022-11-18T00:15:50.218Z,24.98
2022-11-18T00:18:20.669Z,25.80
2022-11-18T00:20:51.092Z,22.35
2022-11-18T00:23:21.528Z,24.55
2022-11-18T00:25:52.460Z,19.85
2022-11-18T00:28:23.793Z,21.67
2022-11-18T00:30:54.184Z,21.02
2022-11-18T00:33:25.031Z,23.25
2022-11-18T00:35:59.412Z,18.80
2022-11-18T00:38:31.415Z,19.38
2022-11-18T00:41:07.228Z,18.13
2022-11-18T00:43:38.384Z,19.23
2022-11-18T00:46:11.218Z,22.13
2022-11-18T00:48:42.972Z,17.13
2022-11-18T00:51:19.699Z,15.23
2022-11-18T00:53:50.081Z,16.23
2022-11-18T00:56:20.770Z,14.68
2022-11-18T00:58:51.263Z,17.15
2022-11-18T01:01:22.393Z,16.45
2022-11-18T01:03:52.903Z,15.57
2022-11-18T01:06:23.444Z,19.52
2022-11-18T01:08:54.269Z,22.85
2022-11-18T01:11:44.842Z,23.98
2022-11-18T01:14:16.626Z,26.02
2022-11-18T01:16:52.622Z,20.50
2022-11-18T01:19:24.276Z,16.23
2022-11-18T01:21:55.362Z,19.40
2022-11-18T01:24:25.764Z,16.67
2022-11-18T01:26:55.829Z,15.07
2022-11-18T01:29:26.717Z,16.70
2022-11-18T01:32:26.028Z,18.30
2022-11-18T01:34:47.933Z,11.15
2022-11-18T01:37:18.407Z,11.13
2022-11-18T01:39:48.961Z,14.15
2022-11-18T01:42:20.258Z,15.18
2022-11-18T01:45:29.647Z,17.45
2022-11-18T01:48:14.063Z,13.77
2022-11-18T01:50:49.775Z,14.05
2022-11-18T01:53:25.338Z,17.65
2022-11-18T01:55:58.442Z,16.73
2022-11-18T01:58:37.395Z,11.18
2022-11-18T02:01:08.825Z,12.93
2022-11-18T02:03:40.331Z,11.95
2022-11-18T02:06:12.347Z,12.27
2022-11-18T02:08:43.720Z,10.10
2022-11-18T02:11:36.699Z,13.52
2022-11-18T02:14:10.668Z,9.10
2022-11-18T02:17:19.913Z,20.10
2022-11-18T02:20:13.220Z,9.88
2022-11-18T02:23:22.699Z,6.78
2022-11-18T02:26:32.219Z,9.05
2022-11-18T02:29:16.748Z,9.77
2022-11-18T02:32:06.684Z,6.05
2022-11-18T02:34:53.739Z,9.93
2022-11-18T02:37:41.389Z,9.40
2022-11-18T02:40:36.301Z,8.73
2022-11-18T02:43:45.494Z,9.18
2022-11-18T02:46:20.867Z,9.45
2022-11-18T02:48:53.876Z,7.47
2022-11-18T02:51:27.831Z,7.40
2022-11-18T02:54:02.793Z,9.57
2022-11-18T02:56:35.273Z,15.20
2022-11-18T02:59:06.449Z,16.83
2022-11-18T03:01:37.978Z,14.18
2022-11-18T03:04:08.543Z,10.98
2022-11-18T03:06:45.300Z,8.52
2022-11-18T03:09:27.182Z,7.60
2022-11-18T03:12:16.920Z,9.48
2022-11-18T03:15:20.166Z,9.25
2022-11-18T03:18:29.408Z,12.10
2022-11-18T03:21:19.785Z,7.28
2022-11-18T03:24:04.534Z,10.25
2022-11-18T03:26:39.918Z,9.20
2022-11-18T03:29:19.849Z,9.23
2022-11-18T03:31:58.927Z,7.10
2022-11-18T03:34:39.894Z,8.10
2022-11-18T03:37:13.299Z,11.18
2022-11-18T03:39:48.236Z,12.02
2022-11-18T03:42:27.449Z,8.80
2022-11-18T03:45:04.523Z,11.27
2022-11-18T03:47:39.865Z,9.57
2022-11-18T03:50:24.162Z,10.68
2022-11-18T03:52:56.735Z,7.63
2022-11-18T03:55:34.705Z,8.75
2022-11-18T03:58:28.661Z,9.07
2022-11-18T04:01:11.565Z,10.57
2022-11-18T04:03:42.086Z,9.50
2022-11-18T04:06:38.698Z,8.18
2022-11-18T04:09:21.734Z,10.45
2022-11-18T04:12:05.321Z,9.85
2022-11-18T04:14:42.633Z,9.82
2022-11-18T04:17:16.383Z,12.10
2022-11-18T04:19:46.787Z,8.30
2022-11-18T04:22:17.699Z,9.75
2022-11-18T04:24:49.507Z,9.98
2022-11-18T04:27:20.948Z,9.73
2022-11-18T04:29:52.000Z,10.57
2022-11-18T04:32:22.113Z,10.82
2022-11-18T04:34:52.748Z,11.57
2022-11-18T04:37:23.240Z,8.85
2022-11-18T04:39:54.568Z,10.50
2022-11-18T04:42:24.894Z,7.88
2022-11-18T04:44:56.026Z,16.30
2022-11-18T04:47:26.544Z,14.15
2022-11-18T04:49:57.275Z,19.02
2022-11-18T04:52:28.128Z,13.40
2022-11-18T04:54:58.605Z,11.73
2022-11-18T04:57:29.289Z,8.60
2022-11-18T05:00:00.185Z,9.80
2022-11-18T05:02:30.650Z,9.13
2022-11-18T05:05:01.430Z,9.30
2022-11-18T05:07:31.547Z,10.68
2022-11-18T05:10:02.143Z,9.32
2022-11-18T05:12:52.511Z,8.63
2022-11-18T05:15:26.115Z,10.95
2022-11-18T05:17:56.502Z,10.35
2022-11-18T05:20:26.848Z,12.90
2022-11-18T05:22:57.678Z,8.90
2022-11-18T05:25:28.221Z,10.95
2022-11-18T05:27:59.371Z,10.00
2022-11-18T05:30:29.883Z,11.23
2022-11-18T05:33:00.567Z,12.05
2022-11-18T05:35:31.328Z,8.90
2022-11-18T05:38:05.430Z,8.77
2022-11-18T05:40:35.826Z,9.43
2022-11-18T05:43:12.789Z,8.93
2022-11-18T05:45:45.134Z,9.68
2022-11-18T05:48:16.018Z,10.43
2022-11-18T05:50:53.542Z,12.27
2022-11-18T05:53:26.443Z,11.05
2022-11-18T05:56:17.202Z,15.95
2022-11-18T05:58:47.680Z,11.40
2022-11-18T06:01:57.540Z,8.43
2022-11-18T06:04:41.510Z,11.60
2022-11-18T06:07:21.649Z,9.68
2022-11-18T06:10:03.505Z,8.98
2022-11-18T06:12:44.032Z,12.48
2022-11-18T06:15:28.556Z,10.25
2022-11-18T06:18:09.431Z,8.95
2022-11-18T06:20:42.391Z,7.90
2022-11-18T06:23:13.898Z,9.05
2022-11-18T06:25:44.753Z,20.50
2022-11-18T06:28:17.600Z,10.60
2022-11-18T06:30:48.353Z,13.60
2022-11-18T06:33:19.013Z,9.20
2022-11-18T06:35:49.900Z,11.00
2022-11-18T06:38:21.629Z,13.48
2022-11-18T06:40:52.683Z,7.28
2022-11-18T06:43:43.055Z,9.45
2022-11-18T06:46:36.511Z,8.05
2022-11-18T06:49:06.704Z,11.05
2022-11-18T06:51:37.649Z,12.68
2022-11-18T06:54:10.872Z,8.60
2022-11-18T06:56:41.858Z,10.55
2022-11-18T06:59:12.687Z,9.27
2022-11-18T07:01:43.952Z,9.65
2022-11-18T07:04:14.778Z,7.60
2022-11-18T07:06:45.643Z,6.85
2022-11-18T07:09:16.695Z,6.65
2022-11-18T07:11:47.844Z,7.18
2022-11-18T07:14:18.430Z,9.02
2022-11-18T07:16:49.409Z,9.20
2022-11-18T07:19:20.103Z,7.65
2022-11-18T07:21:50.227Z,7.68
2022-11-18T07:24:20.778Z,8.30
2022-11-18T07:26:51.213Z,10.27
2022-11-18T07:29:21.315Z,7.70
2022-11-18T07:31:51.319Z,8.77
2022-11-18T07:34:22.395Z,6.57
2022-11-18T07:36:52.877Z,6.80
2022-11-18T07:39:23.748Z,8.15
2022-11-18T07:41:54.387Z,8.00
2022-11-18T07:44:25.556Z,9.35
2022-11-18T07:46:55.968Z,7.35
2022-11-18T07:49:26.837Z,7.95
2022-11-18T07:51:57.364Z,7.40
2022-11-18T07:54:28.073Z,9.07
2022-11-18T07:56:58.456Z,7.13
2022-11-18T07:59:28.547Z,7.03
2022-11-18T08:01:59.146Z,13.77
2022-11-18T08:04:29.488Z,8.50
2022-11-18T08:07:00.068Z,8.07
2022-11-18T08:09:30.362Z,9.05
2022-11-18T08:12:00.849Z,7.80
2022-11-18T08:14:31.982Z,6.75
2022-11-18T08:17:02.324Z,6.85
2022-11-18T08:19:32.535Z,6.30
2022-11-18T08:22:02.568Z,7.35
2022-11-18T08:24:32.517Z,7.38
2022-11-18T08:27:03.077Z,7.82
2022-11-18T08:29:33.955Z,8.07
2022-11-18T08:32:04.644Z,8.38
2022-11-18T08:34:35.802Z,7.72
2022-11-18T08:37:06.577Z,6.50
2022-11-18T08:39:37.474Z,8.43
2022-11-18T08:42:07.639Z,10.27
2022-11-18T08:44:38.574Z,7.57
2022-11-18T08:47:09.371Z,8.30
2022-11-18T08:49:40.647Z,8.77
2022-11-18T08:52:12.273Z,8.38
2022-11-18T08:54:43.518Z,11.75
2022-11-18T08:57:14.177Z,8.27
2022-11-18T08:59:45.020Z,7.68
2022-11-18T09:02:20.338Z,9.23
2022-11-18T09:04:54.848Z,9.32
2022-11-18T09:07:25.344Z,8.38
2022-11-18T09:09:56.143Z,8.65
2022-11-18T09:12:26.687Z,8.52
2022-11-18T09:15:14.224Z,9.07
2022-11-18T09:17:45.491Z,8.43
2022-11-18T09:20:16.318Z,9.20
2022-11-18T09:22:47.095Z,18.40
2022-11-18T09:25:17.904Z,15.65
2022-11-18T09:27:49.465Z,19.13
2022-11-18T09:30:19.720Z,8.30
2022-11-18T09:32:50.091Z,9.23
2022-11-18T09:35:20.601Z,9.60
2022-11-18T09:37:51.275Z,9.20
2022-11-18T09:40:22.270Z,10.13
2022-11-18T09:43:19.872Z,12.38
2022-11-18T09:45:58.509Z,9.07
2022-11-18T09:48:49.601Z,9.82
2022-11-18T09:51:20.378Z,29.10
2022-11-18T09:53:51.095Z,16.05
2022-11-18T09:56:23.303Z,14.95
2022-11-18T09:58:54.048Z,15.52
2022-11-18T10:01:27.690Z,12.55
2022-11-18T10:03:58.725Z,12.80
2022-11-18T10:06:36.386Z,15.70
2022-11-18T10:09:45.974Z,17.27
2022-11-18T10:12:43.729Z,15.05
2022-11-18T10:15:38.677Z,11.77
2022-11-18T10:18:59.624Z,14.43
2022-11-18T10:22:16.774Z,12.95
2022-11-18T10:24:55.693Z,12.95
2022-11-18T10:27:35.675Z,15.43
2022-11-18T10:30:17.227Z,10.10
2022-11-18T10:33:05.525Z,14.70
2022-11-18T10:35:40.777Z,16.90
2022-11-18T10:38:22.697Z,14.38
2022-11-18T10:41:11.469Z,17.63
2022-11-18T10:43:57.214Z,22.95
2022-11-18T10:46:32.463Z,13.25
2022-11-18T10:49:18.797Z,18.23
2022-11-18T10:52:07.842Z,24.38
2022-11-18T10:54:38.673Z,31.58
2022-11-18T10:57:22.630Z,30.20
2022-11-18T10:59:57.820Z,22.55
2022-11-18T11:02:48.202Z,19.85
2022-11-18T11:05:26.340Z,21.40
2022-11-18T11:08:34.549Z,25.58
2022-11-18T11:11:00.366Z,19.38
2022-11-18T11:13:33.599Z,20.67
2022-11-18T11:16:07.273Z,21.90
2022-11-18T11:18:43.552Z,24.67
2022-11-18T11:21:24.765Z,18.25
2022-11-18T11:23:55.324Z,22.48
2022-11-18T11:30:05.221Z,23.85
2022-11-18T11:33:06.275Z,25.77
2022-11-18T11:36:04.835Z,26.35
2022-11-18T11:39:05.068Z,25.13
2022-11-18T11:42:03.973Z,22.80
2022-11-18T11:45:13.581Z,21.58
2022-11-18T11:48:23.529Z,35.60
2022-11-18T11:51:18.403Z,37.65
2022-11-18T11:54:22.153Z,38.05
2022-11-18T11:57:06.452Z,33.30
2022-11-18T12:00:16.060Z,32.17
2022-11-18T12:03:13.677Z,28.58
2022-11-18T12:05:44.721Z,36.22
2022-11-18T12:08:39.852Z,30.95
2022-11-18T12:11:33.643Z,32.15
2022-11-18T12:14:37.106Z,35.42
2022-11-18T12:17:29.131Z,34.78
2022-11-18T12:19:59.680Z,33.70
2022-11-18T12:23:08.912Z,40.05
2022-11-18T12:26:00.669Z,40.97
2022-11-18T12:28:46.884Z,46.17
2022-11-18T12:31:37.688Z,53.95
2022-11-18T12:34:20.742Z,50.55
2022-11-18T12:36:52.324Z,52.97
2022-11-18T12:39:50.047Z,49.28
2022-11-18T12:43:03.977Z,49.60
2022-11-18T12:45:56.181Z,58.35
2022-11-18T12:48:31.550Z,57.17
2022-11-18T12:51:42.131Z,49.65
2022-11-18T12:54:36.422Z,41.30
2022-11-18T12:57:33.065Z,39.20
2022-11-18T13:00:30.711Z,33.28
2022-11-18T13:03:04.486Z,36.35
2022-11-18T13:05:36.737Z,35.40
2022-11-18T13:08:20.177Z,37.72
2022-11-18T13:11:37.614Z,42.63
2022-11-18T13:14:35.117Z,39.78
2022-11-18T13:17:44.472Z,38.13
2022-11-18T13:20:37.799Z,35.22
2022-11-18T13:23:56.150Z,226.13
2022-11-18T13:26:37.284Z,373.17
2022-11-18T13:29:34.979Z,49.08
2022-11-18T13:32:32.017Z,41.95
2022-11-18T13:35:16.626Z,36.38
2022-11-18T13:37:59.122Z,34.97
2022-11-18T13:41:05.570Z,29.95
2022-11-18T13:43:37.591Z,37.65
2022-11-18T13:46:16.858Z,28.17
2022-11-18T13:48:58.162Z,33.30
2022-11-18T13:51:28.958Z,40.17
2022-11-18T13:54:00.001Z,33.08
2022-11-18T13:56:35.079Z,33.00
2022-11-18T13:59:22.133Z,35.03
2022-11-18T14:01:58.271Z,37.25
2022-11-18T14:04:32.893Z,36.83
2022-11-18T14:07:30.548Z,36.40
2022-11-18T14:10:07.404Z,31.75
2022-11-18T14:12:39.046Z,30.70
2022-11-18T14:15:37.942Z,44.08
2022-11-18T14:18:39.168Z,30.52
2022-11-18T14:21:09.816Z,32.03
2022-11-18T14:23:43.847Z,31.60
2022-11-18T14:26:14.571Z,30.05
2022-11-18T14:28:57.727Z,27.10
2022-11-18T14:31:31.736Z,31.63
2022-11-18T14:34:29.040Z,39.03
2022-11-18T14:37:00.938Z,31.70
2022-11-18T14:39:34.026Z,28.92
2022-11-18T14:42:06.667Z,158.70
2022-11-18T14:44:37.157Z,57.53
2022-11-18T14:47:34.516Z,41.25
2022-11-18T14:50:04.609Z,34.63
2022-11-18T14:52:35.495Z,31.65
2022-11-18T14:55:07.006Z,29.48
2022-11-18T14:57:37.781Z,30.60
2022-11-18T15:00:08.800Z,29.52
2022-11-18T15:02:39.154Z,31.13
2022-11-18T15:05:10.964Z,30.38
2022-11-18T15:07:41.739Z,31.27
2022-11-18T15:10:18.925Z,34.53
2022-11-18T15:12:49.455Z,30.70
2022-11-18T15:15:20.176Z,30.70
2022-11-18T15:17:53.737Z,28.60
2022-11-18T15:20:25.300Z,40.75
2022-11-18T15:22:55.674Z,32.30
2022-11-18T15:25:26.249Z,37.10
2022-11-18T15:27:57.420Z,31.52
2022-11-18T15:30:28.197Z,32.70
2022-11-18T15:32:59.232Z,34.85
2022-11-18T15:35:29.385Z,29.40
2022-11-18T15:38:00.207Z,35.72
2022-11-18T15:40:31.027Z,45.13
2022-11-18T15:43:02.198Z,46.03
2022-11-18T15:45:32.465Z,44.05
2022-11-18T15:48:02.973Z,45.33
2022-11-18T15:50:33.755Z,44.05
2022-11-18T15:53:04.201Z,53.28
2022-11-18T15:55:34.361Z,53.08
2022-11-18T15:58:04.195Z,49.13
2022-11-18T16:00:35.962Z,44.42
2022-11-18T16:03:07.100Z,45.50
2022-11-18T16:05:37.581Z,49.85
2022-11-18T16:08:08.113Z,48.78
2022-11-18T16:10:58.136Z,46.65
2022-11-18T16:13:28.519Z,41.83
2022-11-18T16:15:59.003Z,38.22
2022-11-18T16:18:29.388Z,38.08
2022-11-18T16:21:03.263Z,32.08
2022-11-18T16:23:34.019Z,44.15
2022-11-18T16:26:04.497Z,33.80
2022-11-18T16:28:34.999Z,45.92
2022-11-18T16:31:25.821Z,33.45
2022-11-18T16:33:56.599Z,74.55
2022-11-18T16:36:31.015Z,40.85
2022-11-18T16:39:05.269Z,31.98
2022-11-18T16:41:36.440Z,34.45
2022-11-18T16:44:12.437Z,29.88
2022-11-18T16:46:45.152Z,37.38
2022-11-18T16:49:18.526Z,35.38
2022-11-18T16:51:51.036Z,30.75
2022-11-18T16:54:27.165Z,33.85
2022-11-18T16:56:59.225Z,34.08
2022-11-18T16:59:31.672Z,35.40
2022-11-18T17:02:03.628Z,37.95
2022-11-18T17:04:38.650Z,36.20
2022-11-18T17:07:09.452Z,32.58
2022-11-18T17:09:39.698Z,38.67
2022-11-18T17:12:10.436Z,33.05
2022-11-18T17:14:41.765Z,35.53
2022-11-18T17:17:12.597Z,32.83
2022-11-18T17:19:43.308Z,33.90
2022-11-18T17:22:14.051Z,34.15
2022-11-18T17:24:44.826Z,31.33
2022-11-18T17:27:15.511Z,31.10
2022-11-18T17:29:46.828Z,32.72
2022-11-18T17:32:16.954Z,33.03
2022-11-18T17:34:47.383Z,33.38
2022-11-18T17:37:17.491Z,29.55
2022-11-18T17:39:48.164Z,29.23
2022-11-18T17:42:24.461Z,31.33
2022-11-18T17:44:55.170Z,29.33
2022-11-18T17:47:26.714Z,30.75
2022-11-18T17:49:57.124Z,27.15
2022-11-18T17:52:27.184Z,28.65
2022-11-18T17:54:57.819Z,26.88
2022-11-18T17:57:28.308Z,29.02
2022-11-18T17:59:58.758Z,37.90
2022-11-18T18:02:29.750Z,28.08
2022-11-18T18:05:01.283Z,29.63
2022-11-18T18:07:32.631Z,28.02
2022-11-18T18:10:03.081Z,22.67
2022-11-18T18:12:53.043Z,31.83
2022-11-18T18:15:23.490Z,33.17
2022-11-18T18:17:53.965Z,38.15
2022-11-18T18:20:24.752Z,40.40
2022-11-18T18:22:56.343Z,37.15
2022-11-18T18:25:27.397Z,38.17
2022-11-18T18:27:58.503Z,36.97
2022-11-18T18:30:28.888Z,35.17
2022-11-18T18:32:59.055Z,31.05
2022-11-18T18:35:29.835Z,29.40
2022-11-18T18:38:01.220Z,33.80
2022-11-18T18:40:31.801Z,33.38
2022-11-18T18:43:02.112Z,32.17
2022-11-18T18:45:52.062Z,30.58
2022-11-18T18:48:22.887Z,28.55
2022-11-18T18:50:53.317Z,29.20
2022-11-18T18:53:23.765Z,29.48
2022-11-18T18:55:58.406Z,28.27
2022-11-18T18:58:29.524Z,29.02
2022-11-18T19:01:08.094Z,25.52
2022-11-18T19:03:38.937Z,28.42
2022-11-18T19:09:30.657Z,22.10
2022-11-18T19:12:21.213Z,25.38
2022-11-18T19:14:52.254Z,20.80
2022-11-18T19:17:22.745Z,19.40
2022-11-18T19:20:12.521Z,20.75
2022-11-18T19:22:43.236Z,19.50
2022-11-18T19:25:14.147Z,22.75
2022-11-18T19:27:44.517Z,20.33
2022-11-18T19:30:15.248Z,20.38
2022-11-18T19:32:45.952Z,18.38
2022-11-18T19:35:16.439Z,23.13
2022-11-18T19:37:48.540Z,21.40
2022-11-18T19:40:20.238Z,21.05
2022-11-18T19:42:51.856Z,20.05
2022-11-18T19:45:22.684Z,22.08
2022-11-18T19:47:53.064Z,19.20
2022-11-18T19:50:23.900Z,23.35
2022-11-18T19:52:54.681Z,19.75
2022-11-18T19:55:25.097Z,20.85
2022-11-18T19:57:56.228Z,20.58
2022-11-18T20:00:26.932Z,19.65
2022-11-18T20:02:57.958Z,19.13
2022-11-18T20:05:48.845Z,17.55
2022-11-18T20:08:19.546Z,19.20
2022-11-18T20:10:50.745Z,21.38
2022-11-18T20:13:21.416Z,19.17
2022-11-18T20:15:52.001Z,22.20
2022-11-18T20:18:24.739Z,21.85
2022-11-18T20:20:55.171Z,18.08
2022-11-18T20:23:25.834Z,20.02
2022-11-18T20:25:56.186Z,18.70
2022-11-18T20:28:26.980Z,21.27
2022-11-18T20:30:57.448Z,19.60
2022-11-18T20:33:28.790Z,20.88
2022-11-18T20:35:59.035Z,21.65
2022-11-18T20:38:29.496Z,20.67
2022-11-18T20:41:04.539Z,16.40
2022-11-18T20:43:35.743Z,17.27
2022-11-18T20:46:09.232Z,19.92
2022-11-18T20:48:40.857Z,17.92
2022-11-18T20:51:23.060Z,17.00
2022-11-18T20:53:55.146Z,17.40
2022-11-18T20:56:28.356Z,16.00
2022-11-18T20:59:01.906Z,16.02
2022-11-18T21:01:34.244Z,13.75
2022-11-18T21:04:05.944Z,15.23
2022-11-18T21:06:36.408Z,14.63
2022-11-18T21:09:08.184Z,16.85
2022-11-18T21:11:38.618Z,17.95
2022-11-18T21:14:28.249Z,16.13
2022-11-18T21:17:03.506Z,13.85
2022-11-18T21:19:35.443Z,12.48
2022-11-18T21:22:06.273Z,11.38
2022-11-18T21:24:37.013Z,15.13
2022-11-18T21:27:07.481Z,14.13
2022-11-18T21:29:37.669Z,11.30
2022-11-18T21:32:08.762Z,14.32
2022-11-18T21:34:39.674Z,14.45
2022-11-18T21:37:10.210Z,12.25
2022-11-18T21:39:40.966Z,13.85
2022-11-18T21:42:11.424Z,16.35
2022-11-18T21:44:42.123Z,12.77
2022-11-18T21:47:12.609Z,13.07
2022-11-18T21:49:43.098Z,13.32
2022-11-18T21:52:13.676Z,13.27
2022-11-18T21:54:44.154Z,13.65
2022-11-18T21:57:14.598Z,14.45
2022-11-18T21:59:45.135Z,11.38
2022-11-18T22:02:16.467Z,13.15
2022-11-18T22:04:57.574Z,12.20
2022-11-18T22:07:28.748Z,10.07
2022-11-18T22:09:58.652Z,12.85
2022-11-18T22:12:29.095Z,16.08
2022-11-18T22:14:59.521Z,10.23
2022-11-18T22:17:30.076Z,10.85
2022-11-18T22:20:00.740Z,11.32
2022-11-18T22:22:31.501Z,16.95
2022-11-18T22:25:01.947Z,14.13
2022-11-18T22:27:32.466Z,12.48
2022-11-18T22:30:03.088Z,11.73
2022-11-18T22:32:33.801Z,15.48
2022-11-18T22:35:04.289Z,15.00
2022-11-18T22:37:35.194Z,16.50
2022-11-18T22:40:06.189Z,13.70
2022-11-18T22:42:56.887Z,13.75
2022-11-18T22:45:27.755Z,15.70
2022-11-18T22:47:58.187Z,11.85
2022-11-18T22:50:28.663Z,14.40
2022-11-18T22:52:59.250Z,13.57
2022-11-18T22:55:29.350Z,16.33
2022-11-18T22:58:00.124Z,19.63
2022-11-18T23:00:31.129Z,17.55
2022-11-18T23:03:01.513Z,20.73
2022-11-18T23:05:32.579Z,20.48
2022-11-18T23:08:03.009Z,21.50
2022-11-18T23:10:33.394Z,13.88
2022-11-18T23:13:23.079Z,19.25
2022-11-18T23:15:53.438Z,20.67
2022-11-18T23:18:23.935Z,23.63
2022-11-18T23:20:54.778Z,32.40
2022-11-18T23:23:26.065Z,25.48
2022-11-18T23:25:56.475Z,25.27
2022-11-18T23:28:26.889Z,26.10
2022-11-18T23:31:13.525Z,40.20
2022-11-18T23:33:44.504Z,25.88
2022-11-18T23:36:18.105Z,20.35
2022-11-18T23:38:48.959Z,16.02
2022-11-18T23:41:21.068Z,17.45
2022-11-18T23:43:53.572Z,18.60
2022-11-18T23:46:25.762Z,14.52
2022-11-18T23:48:56.201Z,16.65
2022-11-18T23:51:28.301Z,16.25
2022-11-18T23:53:59.663Z,17.55
2022-11-18T23:56:35.010Z,14.32
2022-11-18T23:59:08.246Z,15.23
